Главная страница
METAR-TAF:

METAR-TAF

Аэропорты :

Aklavik, Северо-Западные Территории, Канада

широта: 68-13N, долгота: 135-00W, высота над уровнем моря: 7 м

Текущие метеонаблюдения

Эта сводка был подготовлена 29 минут назад, в 14:00 UTC
Ветер 3 Узел от северо-западный
Температура 4°C
Влажность 87%
Давление 1017 hPa
Видимость: 24.1 км
Рассеянная облачность на высоте 8000 фута

METAR: CYKD 181400Z 31003KT 15SM BKN080 04/02 A3002 RMK AC5 SLP166

Время: 08:29 (14:29 UTC)


TAF: отсутствует

Метеонаблюдения и прогнозы для более 4000 аэропортов (сводки METAR и TAF).

Имеющиеся станции представлены на карте желтыми и красными точками.

Чтобы увидеть название станции, наведите на нее мышь.

Затем щелкните, чтобы увидеть метеонаблюдения и метеопрогнозы.

Управление картой: чтобы увеличить масштаб, щелкните зеленые кнопки с черным крестиком; чтобы уменьшить масштаб, щелкните зеленую кнопку с тире; для просмотра соседних карт щелкайте зеленые стрелки.


METAR-TAF: